createdAt,value
2023-01-05T00:01:54.190Z,36.90
2023-01-05T00:04:22.731Z,45.53
2023-01-05T00:06:52.459Z,45.75
2023-01-05T00:09:20.629Z,38.22
2023-01-05T00:12:07.605Z,43.58
2023-01-05T00:14:54.671Z,44.38
2023-01-05T00:17:44.013Z,41.53
2023-01-05T00:20:35.164Z,34.88
2023-01-05T00:23:05.231Z,36.88
2023-01-05T00:25:37.639Z,37.17
2023-01-05T00:30:40.365Z,37.85
2023-01-05T00:34:29.122Z,39.33
2023-01-05T00:36:57.895Z,38.10
2023-01-05T01:33:32.153Z,38.27
2023-01-05T01:36:04.780Z,53.05
2023-01-05T01:38:33.147Z,41.20
2023-01-05T01:41:01.613Z,39.95
2023-01-05T01:43:48.776Z,40.55
2023-01-05T01:46:22.981Z,44.42
2023-01-05T01:48:59.152Z,21.80
2023-01-05T01:51:41.507Z,13.50
2023-01-05T01:54:13.416Z,12.93
2023-01-05T01:56:51.314Z,12.27
2023-01-05T01:59:19.552Z,25.23
2023-01-05T02:01:51.775Z,28.77
2023-01-05T02:04:21.473Z,29.85
2023-01-05T02:06:50.482Z,39.20
2023-01-05T02:09:18.474Z,27.77
2023-01-05T02:12:15.888Z,28.05
2023-01-05T02:15:22.226Z,35.95
2023-01-05T02:18:01.054Z,27.13
2023-01-05T02:20:53.724Z,29.08
2023-01-05T02:23:43.931Z,26.55
2023-01-05T02:26:32.090Z,28.35
2023-01-05T02:29:02.273Z,28.38
2023-01-05T02:31:55.473Z,28.75
2023-01-05T02:34:26.053Z,18.77
2023-01-05T02:37:01.048Z,21.75
2023-01-05T02:39:39.177Z,19.48
2023-01-05T02:42:27.329Z,11.88
2023-01-05T02:44:56.033Z,13.20
2023-01-05T02:47:29.940Z,11.57
2023-01-05T02:50:12.173Z,16.80
2023-01-05T02:53:01.363Z,11.77
2023-01-05T02:55:50.663Z,12.30
2023-01-05T02:58:31.929Z,12.77
2023-01-05T03:01:06.435Z,12.20
2023-01-05T03:03:34.805Z,9.63
2023-01-05T03:06:21.055Z,13.70
2023-01-05T03:08:53.757Z,11.63
2023-01-05T03:11:50.055Z,11.07
2023-01-05T03:14:30.511Z,10.70
2023-01-05T03:17:02.310Z,13.63
2023-01-05T03:19:36.898Z,13.50
2023-01-05T03:22:35.124Z,14.30
2023-01-05T03:25:27.149Z,12.35
2023-01-05T03:28:17.524Z,13.65
2023-01-05T03:31:28.982Z,13.50
2023-01-05T03:34:34.675Z,16.30
2023-01-05T03:37:08.421Z,15.77
2023-01-05T03:39:41.091Z,10.85
2023-01-05T03:42:12.124Z,14.20
2023-01-05T03:44:42.021Z,11.73
2023-01-05T03:47:14.879Z,18.02
2023-01-05T03:49:46.699Z,14.80
2023-01-05T03:52:14.826Z,19.60
2023-01-05T03:54:44.123Z,18.48
2023-01-05T03:57:12.282Z,20.33
2023-01-05T03:59:40.695Z,26.50
2023-01-05T04:02:09.396Z,29.95
2023-01-05T04:04:38.372Z,28.25
2023-01-05T04:07:10.202Z,27.38
2023-01-05T04:09:38.783Z,24.80
2023-01-05T04:12:07.575Z,33.97
2023-01-05T04:14:40.981Z,15.35
2023-01-05T04:17:09.394Z,13.48
2023-01-05T04:19:39.702Z,15.07
2023-01-05T04:22:09.083Z,14.18
2023-01-05T04:24:37.392Z,13.30
2023-01-05T04:27:05.569Z,15.20
2023-01-05T04:29:33.832Z,13.50
2023-01-05T04:32:02.275Z,10.35
2023-01-05T04:34:30.693Z,15.10
2023-01-05T04:37:00.695Z,12.60
2023-01-05T04:39:32.924Z,15.20
2023-01-05T04:42:02.556Z,14.80
2023-01-05T04:44:32.522Z,17.15
2023-01-05T04:47:04.280Z,14.40
2023-01-05T04:49:39.159Z,9.77
2023-01-05T04:52:10.287Z,10.07
2023-01-05T04:54:40.566Z,16.00
2023-01-05T04:57:09.955Z,14.38
2023-01-05T04:59:40.052Z,11.95
2023-01-05T05:02:09.513Z,11.50
2023-01-05T05:04:37.978Z,10.88
2023-01-05T05:07:06.081Z,14.40
2023-01-05T05:09:35.547Z,9.60
2023-01-05T05:12:04.672Z,9.15
2023-01-05T05:14:36.131Z,10.73
2023-01-05T05:17:04.129Z,12.35
2023-01-05T05:19:32.394Z,10.63
2023-01-05T05:22:01.245Z,10.30
2023-01-05T05:24:30.138Z,12.23
2023-01-05T05:26:58.061Z,12.45
2023-01-05T05:29:26.313Z,8.93
2023-01-05T05:31:54.480Z,13.73
2023-01-05T05:34:22.902Z,11.23
2023-01-05T05:36:50.880Z,12.15
2023-01-05T05:39:19.185Z,9.35
2023-01-05T05:41:47.205Z,14.27
2023-01-05T05:44:15.513Z,13.73
2023-01-05T05:46:43.515Z,15.90
2023-01-05T05:49:11.845Z,19.08
2023-01-05T05:51:39.921Z,17.75
2023-01-05T05:54:08.211Z,20.65
2023-01-05T05:56:36.102Z,20.73
2023-01-05T05:59:05.477Z,24.35
2023-01-05T06:01:33.544Z,19.48
2023-01-05T06:04:02.899Z,20.80
2023-01-05T06:06:30.715Z,27.83
2023-01-05T06:08:58.973Z,26.67
2023-01-05T06:11:26.972Z,26.20
2023-01-05T06:13:55.463Z,28.38
2023-01-05T06:16:23.488Z,31.15
2023-01-05T06:18:52.885Z,28.63
2023-01-05T06:21:22.325Z,30.02
2023-01-05T06:23:51.206Z,30.83
2023-01-05T06:26:19.197Z,30.90
2023-01-05T06:28:47.646Z,31.05
2023-01-05T06:31:15.573Z,39.20
2023-01-05T06:33:43.951Z,29.48
2023-01-05T06:36:11.868Z,29.10
2023-01-05T06:38:41.454Z,29.88
2023-01-05T06:41:09.470Z,34.50
2023-01-05T06:43:38.854Z,39.00
2023-01-05T06:46:06.849Z,53.15
2023-01-05T06:48:35.201Z,37.28
2023-01-05T06:51:03.861Z,31.80
2023-01-05T06:53:32.361Z,66.25
2023-01-05T06:56:00.252Z,31.92
2023-01-05T06:58:29.792Z,29.02
2023-01-05T07:00:57.766Z,26.17
2023-01-05T07:03:26.259Z,28.58
2023-01-05T07:05:54.163Z,28.00
2023-01-05T07:08:23.564Z,27.20
2023-01-05T07:10:51.434Z,24.52
2023-01-05T07:13:19.707Z,20.23
2023-01-05T07:15:47.705Z,25.95
2023-01-05T07:18:16.052Z,17.95
2023-01-05T07:20:43.911Z,22.25
2023-01-05T07:23:12.153Z,17.30
2023-01-05T07:25:40.111Z,18.60
2023-01-05T07:28:08.372Z,15.95
2023-01-05T07:30:36.432Z,15.38
2023-01-05T07:33:05.262Z,15.73
2023-01-05T07:35:33.294Z,12.45
2023-01-05T07:38:02.697Z,13.98
2023-01-05T07:40:30.647Z,14.13
2023-01-05T07:42:59.489Z,16.30
2023-01-05T07:45:27.693Z,18.98
2023-01-05T07:47:57.253Z,13.05
2023-01-05T07:50:25.234Z,19.02
2023-01-05T07:52:53.482Z,21.83
2023-01-05T07:55:21.554Z,15.73
2023-01-05T07:57:49.874Z,20.38
2023-01-05T08:00:18.113Z,18.67
2023-01-05T08:02:46.475Z,20.17
2023-01-05T08:05:14.551Z,20.40
2023-01-05T08:07:42.924Z,18.33
2023-01-05T08:10:29.097Z,36.00
2023-01-05T08:13:26.913Z,21.98
2023-01-05T08:15:56.871Z,22.17
2023-01-05T08:18:25.102Z,20.83
2023-01-05T08:20:58.848Z,25.00
2023-01-05T08:23:28.711Z,29.75
2023-01-05T08:25:57.451Z,30.10
2023-01-05T08:28:31.427Z,28.92
2023-01-05T08:31:16.532Z,26.70
2023-01-05T08:33:46.656Z,24.90
2023-01-05T08:36:19.966Z,29.92
2023-01-05T08:38:51.329Z,30.25
2023-01-05T08:41:25.242Z,33.22
2023-01-05T08:44:12.084Z,26.77
2023-01-05T08:46:40.645Z,28.10
2023-01-05T08:49:09.930Z,28.40
2023-01-05T08:51:38.796Z,28.83
2023-01-05T08:54:06.772Z,29.55
2023-01-05T08:56:39.016Z,31.83
2023-01-05T08:59:07.993Z,27.50
2023-01-05T09:01:37.242Z,31.52
2023-01-05T09:04:05.716Z,25.63
2023-01-05T09:06:35.464Z,26.40
2023-01-05T09:09:04.279Z,21.92
2023-01-05T09:11:35.210Z,22.73
2023-01-05T09:14:03.618Z,21.00
2023-01-05T09:17:05.090Z,28.60
2023-01-05T09:19:23.366Z,25.23
2023-01-05T09:21:52.738Z,27.15
2023-01-05T09:24:20.660Z,28.00
2023-01-05T09:26:50.626Z,36.90
2023-01-05T09:29:18.533Z,25.05
2023-01-05T09:31:46.907Z,31.35
2023-01-05T09:34:16.093Z,30.67
2023-01-05T09:36:44.315Z,38.50
2023-01-05T09:39:12.442Z,31.88
2023-01-05T09:42:06.139Z,32.13
2023-01-05T09:44:40.054Z,28.55
2023-01-05T09:47:15.044Z,28.17
2023-01-05T09:49:43.631Z,35.05
2023-01-05T09:52:14.089Z,35.28
2023-01-05T09:54:42.276Z,34.13
2023-01-05T09:57:24.109Z,32.97
2023-01-05T09:59:54.524Z,45.67
2023-01-05T10:02:24.254Z,35.13
2023-01-05T10:04:54.650Z,35.85
2023-01-05T10:07:41.121Z,38.03
2023-01-05T10:10:31.426Z,40.65
2023-01-05T10:13:05.798Z,41.50
2023-01-05T10:15:40.807Z,38.25
2023-01-05T10:18:15.904Z,35.33
2023-01-05T10:21:09.422Z,27.60
2023-01-05T10:24:07.317Z,29.92
2023-01-05T10:27:23.158Z,27.88
2023-01-05T10:29:49.122Z,24.48
2023-01-05T10:32:23.076Z,27.00
2023-01-05T10:34:58.047Z,33.47
2023-01-05T10:37:47.474Z,36.60
2023-01-05T10:40:40.316Z,40.70
2023-01-05T10:43:37.264Z,36.92
2023-01-05T10:49:00.534Z,45.15
2023-01-05T10:51:34.153Z,44.05
2023-01-05T10:54:03.785Z,39.13
2023-01-05T10:56:33.463Z,32.10
2023-01-05T10:59:15.420Z,32.95
2023-01-05T11:01:47.317Z,35.67
2023-01-05T11:04:33.150Z,36.47
2023-01-05T11:07:07.466Z,31.30
2023-01-05T11:09:41.394Z,37.15
2023-01-05T11:12:19.873Z,33.35
2023-01-05T11:14:58.080Z,34.90
2023-01-05T11:17:29.085Z,35.67
2023-01-05T11:19:58.291Z,39.70
2023-01-05T11:22:30.483Z,43.58
2023-01-05T11:25:14.031Z,40.72
2023-01-05T11:27:42.353Z,41.08
2023-01-05T11:30:16.429Z,46.97
2023-01-05T11:32:46.004Z,46.75
2023-01-05T11:35:24.673Z,41.00
2023-01-05T11:37:53.064Z,57.38
2023-01-05T11:40:24.022Z,47.78
2023-01-05T11:42:52.396Z,48.22
2023-01-05T11:45:25.079Z,44.92
2023-01-05T11:48:05.548Z,44.75
2023-01-05T11:50:49.544Z,52.47
2023-01-05T11:53:34.307Z,42.20
2023-01-05T11:56:04.012Z,43.95
2023-01-05T11:58:35.216Z,42.22
2023-01-05T12:01:22.301Z,40.10
2023-01-05T12:04:10.033Z,46.40
2023-01-05T12:07:04.917Z,48.83
2023-01-05T12:09:45.682Z,47.90
2023-01-05T12:12:26.359Z,51.67
2023-01-05T12:15:12.925Z,52.92
2023-01-05T12:17:40.751Z,54.60
2023-01-05T12:20:49.543Z,60.75
2023-01-05T12:23:45.246Z,48.90
2023-01-05T12:26:28.453Z,55.78
2023-01-05T12:35:25.120Z,45.88
2023-01-05T12:37:57.627Z,48.95
2023-01-05T12:40:56.335Z,50.45
2023-01-05T12:44:06.180Z,48.03
2023-01-05T12:47:18.865Z,54.88
2023-01-05T12:50:23.939Z,47.72
2023-01-05T12:53:01.936Z,43.88
2023-01-05T12:55:39.376Z,50.50
2023-01-05T12:58:25.166Z,51.15
2023-01-05T13:00:58.083Z,44.70
2023-01-05T13:03:34.148Z,50.47
2023-01-05T13:06:18.480Z,43.88
2023-01-05T13:08:50.827Z,45.88
2023-01-05T13:11:28.084Z,43.63
2023-01-05T13:14:04.082Z,46.63
2023-01-05T13:16:49.176Z,42.83
2023-01-05T13:19:48.550Z,45.88
2023-01-05T13:22:24.859Z,45.85
2023-01-05T13:24:58.776Z,42.42
2023-01-05T13:27:29.452Z,44.90
2023-01-05T13:30:01.242Z,37.50
2023-01-05T13:32:54.847Z,40.60
2023-01-05T13:35:49.514Z,47.35
2023-01-05T13:38:32.663Z,38.28
2023-01-05T13:41:08.695Z,37.60
2023-01-05T13:43:42.722Z,52.08
2023-01-05T13:49:33.254Z,43.92
2023-01-05T13:52:04.154Z,42.22
2023-01-05T13:55:01.061Z,40.05
2023-01-05T13:57:43.245Z,43.55
2023-01-05T14:00:25.357Z,41.17
2023-01-05T14:03:08.019Z,40.38
2023-01-05T14:05:51.255Z,45.75
2023-01-05T14:08:35.441Z,42.78
2023-01-05T14:11:17.381Z,37.10
2023-01-05T14:13:55.148Z,40.28
2023-01-05T14:16:35.872Z,44.42
2023-01-05T14:19:37.400Z,39.92
2023-01-05T14:22:25.098Z,45.95
2023-01-05T14:24:54.334Z,38.90
2023-01-05T14:27:31.938Z,45.95
2023-01-05T14:30:01.193Z,40.88
2023-01-05T14:32:34.773Z,42.42
2023-01-05T14:35:09.790Z,38.53
2023-01-05T14:37:52.694Z,34.53
2023-01-05T14:40:40.007Z,39.17
2023-01-05T14:43:21.785Z,33.45
2023-01-05T14:46:10.974Z,42.65
2023-01-05T14:48:44.052Z,35.60
2023-01-05T14:51:19.210Z,36.80
2023-01-05T14:53:50.268Z,40.88
2023-01-05T14:56:25.986Z,46.95
2023-01-05T14:58:57.106Z,34.85
2023-01-05T15:01:47.366Z,38.22
2023-01-05T15:04:27.731Z,40.45
2023-01-05T15:07:14.732Z,39.90
2023-01-05T15:10:10.693Z,44.13
2023-01-05T15:12:45.635Z,41.50
2023-01-05T15:15:28.823Z,45.03
2023-01-05T15:18:36.037Z,42.00
2023-01-05T15:21:48.885Z,45.95
2023-01-05T15:24:43.424Z,49.03
2023-01-05T15:27:37.062Z,64.80
2023-01-05T15:30:26.310Z,44.53
2023-01-05T15:33:35.892Z,45.10
2023-01-05T15:36:06.358Z,39.65
2023-01-05T15:38:45.478Z,43.08
2023-01-05T15:41:16.941Z,48.13
2023-01-05T15:43:45.352Z,47.13
2023-01-05T15:46:21.213Z,59.72
2023-01-05T15:48:53.660Z,46.33
2023-01-05T15:51:28.815Z,48.83
2023-01-05T15:53:59.689Z,52.22
2023-01-05T15:56:40.957Z,46.92
2023-01-05T15:59:35.160Z,49.55
2023-01-05T16:02:18.194Z,52.85
2023-01-05T16:04:46.637Z,49.22
2023-01-05T16:07:14.665Z,51.05
2023-01-05T16:09:47.671Z,56.97
2023-01-05T16:12:26.651Z,52.72
2023-01-05T16:15:01.910Z,59.10
2023-01-05T16:17:34.463Z,47.28
2023-01-05T16:20:25.028Z,58.58
2023-01-05T16:23:13.251Z,51.75
2023-01-05T16:25:49.511Z,51.47
2023-01-05T16:28:20.764Z,57.17
2023-01-05T16:30:49.957Z,46.90
2023-01-05T16:33:28.295Z,47.85
2023-01-05T16:36:19.600Z,55.78
2023-01-05T16:38:48.066Z,54.65
2023-01-05T16:41:21.943Z,48.97
2023-01-05T16:43:51.822Z,54.85
2023-01-05T16:46:21.257Z,61.13
2023-01-05T16:48:55.412Z,57.33
2023-01-05T16:51:32.581Z,57.17
2023-01-05T16:54:23.505Z,55.97
2023-01-05T16:56:59.915Z,55.63
2023-01-05T16:59:35.682Z,57.60
2023-01-05T17:02:03.950Z,51.67
2023-01-05T17:04:32.021Z,54.25
2023-01-05T17:07:01.212Z,55.13
2023-01-05T17:09:32.099Z,57.92
2023-01-05T17:12:00.430Z,53.13
2023-01-05T17:14:28.942Z,55.20
2023-01-05T17:17:00.451Z,62.50
2023-01-05T17:19:29.159Z,63.67
2023-01-05T17:22:04.913Z,54.03
2023-01-05T17:24:34.495Z,59.72
2023-01-05T17:27:02.954Z,55.60
2023-01-05T17:29:32.913Z,58.95
2023-01-05T17:32:01.145Z,62.30
2023-01-05T17:34:29.407Z,54.75
2023-01-05T17:37:00.152Z,59.88
2023-01-05T17:39:28.580Z,67.55
2023-01-05T17:42:17.034Z,58.20
2023-01-05T17:44:45.466Z,70.55
2023-01-05T17:47:15.034Z,63.30
2023-01-05T17:49:44.134Z,59.47
2023-01-05T17:52:13.759Z,60.88
2023-01-05T17:54:43.474Z,60.60
2023-01-05T17:57:14.118Z,65.25
2023-01-05T18:02:15.846Z,66.13
2023-01-05T18:04:43.826Z,65.30
2023-01-05T18:07:13.337Z,64.45
2023-01-05T18:09:41.311Z,67.88
2023-01-05T18:12:24.767Z,65.68
2023-01-05T18:14:53.966Z,60.40
2023-01-05T18:17:22.407Z,62.63
2023-01-05T18:19:50.944Z,63.88
2023-01-05T18:22:19.307Z,63.30
2023-01-05T18:24:48.594Z,66.78
2023-01-05T18:27:16.764Z,63.75
2023-01-05T18:29:45.638Z,66.95
2023-01-05T18:32:13.658Z,57.03
2023-01-05T18:34:42.890Z,63.47
2023-01-05T18:37:21.416Z,60.78
2023-01-05T18:39:51.140Z,68.03
2023-01-05T18:42:19.175Z,59.47
2023-01-05T18:44:47.526Z,69.57
2023-01-05T18:47:15.474Z,63.00
2023-01-05T18:49:43.689Z,65.47
2023-01-05T18:52:11.847Z,64.55
2023-01-05T18:54:40.049Z,65.45
2023-01-05T18:57:07.999Z,66.85
2023-01-05T18:59:36.347Z,57.58
2023-01-05T19:02:04.564Z,60.63
2023-01-05T19:04:33.017Z,62.30
2023-01-05T19:07:01.101Z,62.05
2023-01-05T19:09:29.587Z,56.92
2023-01-05T19:11:57.712Z,61.75
2023-01-05T19:14:26.095Z,61.33
2023-01-05T19:16:54.451Z,60.78
2023-01-05T19:19:22.835Z,60.08
2023-01-05T19:21:52.415Z,65.80
2023-01-05T19:24:23.077Z,74.43
2023-01-05T19:26:51.521Z,54.10
2023-01-05T19:29:20.668Z,61.40
2023-01-05T19:31:49.398Z,65.10
2023-01-05T19:34:19.773Z,65.13
2023-01-05T19:36:48.383Z,60.60
2023-01-05T19:39:21.985Z,62.30
2023-01-05T19:41:54.591Z,59.38
2023-01-05T19:44:23.245Z,63.08
2023-01-05T19:46:54.375Z,57.65
2023-01-05T19:49:26.192Z,56.42
2023-01-05T19:51:54.748Z,62.70
2023-01-05T19:54:25.756Z,64.43
2023-01-05T19:56:55.036Z,62.25
2023-01-05T19:59:33.675Z,56.80
2023-01-05T20:02:03.064Z,55.47
2023-01-05T20:04:33.025Z,64.60
2023-01-05T20:07:04.134Z,71.15
2023-01-05T20:09:34.159Z,67.47
2023-01-05T20:12:13.730Z,62.92
2023-01-05T20:14:43.292Z,64.05
2023-01-05T20:17:12.905Z,57.15
2023-01-05T20:19:41.440Z,58.05
2023-01-05T20:22:15.688Z,60.55
2023-01-05T20:24:44.136Z,64.47
2023-01-05T20:27:14.561Z,66.00
2023-01-05T20:29:44.243Z,58.17
2023-01-05T20:32:13.887Z,65.95
2023-01-05T20:34:45.211Z,73.90
2023-01-05T20:37:14.573Z,63.85
2023-01-05T20:39:42.949Z,60.63
2023-01-05T20:42:11.993Z,68.10
2023-01-05T20:44:44.457Z,62.88
2023-01-05T20:47:13.850Z,67.63
2023-01-05T20:49:44.728Z,63.65
2023-01-05T20:52:15.741Z,68.57
2023-01-05T20:54:44.183Z,69.03
2023-01-05T20:57:12.769Z,61.45
2023-01-05T20:59:42.376Z,69.05
2023-01-05T21:02:23.713Z,67.35
2023-01-05T21:04:53.508Z,74.85
2023-01-05T21:07:22.839Z,63.65
2023-01-05T21:09:52.079Z,64.63
2023-01-05T21:12:20.799Z,65.03
2023-01-05T21:14:49.073Z,62.05
2023-01-05T21:17:17.226Z,68.95
2023-01-05T21:19:46.574Z,59.90
2023-01-05T21:22:14.642Z,67.10
2023-01-05T21:24:42.994Z,61.22
2023-01-05T21:27:11.245Z,60.75
2023-01-05T21:29:39.515Z,71.55
2023-01-05T21:32:07.436Z,66.05
2023-01-05T21:34:35.693Z,63.22
2023-01-05T21:37:03.658Z,63.55
2023-01-05T21:39:31.972Z,66.75
2023-01-05T21:42:18.389Z,66.82
2023-01-05T21:44:46.682Z,63.33
2023-01-05T21:47:14.674Z,66.32
2023-01-05T21:49:42.852Z,62.83
2023-01-05T21:52:29.817Z,69.10
2023-01-05T21:55:33.246Z,63.67
2023-01-05T21:58:02.918Z,68.00
2023-01-05T22:00:31.314Z,64.85
2023-01-05T22:02:59.325Z,65.07
2023-01-05T22:05:28.774Z,64.00
2023-01-05T22:07:56.874Z,64.78
2023-01-05T22:10:25.156Z,68.93
2023-01-05T22:12:54.956Z,60.67
2023-01-05T22:15:25.985Z,66.35
2023-01-05T22:17:54.495Z,71.38
2023-01-05T22:20:22.762Z,59.50
2023-01-05T22:22:50.773Z,64.35
2023-01-05T22:25:19.114Z,64.32
2023-01-05T22:27:47.308Z,59.30
2023-01-05T22:30:15.714Z,62.63
2023-01-05T22:32:43.652Z,60.78
2023-01-05T22:35:12.885Z,70.63
2023-01-05T22:37:40.904Z,68.57
2023-01-05T22:40:09.839Z,60.25
2023-01-05T22:42:38.843Z,65.93
2023-01-05T22:45:07.552Z,67.38
2023-01-05T22:47:35.374Z,69.28
2023-01-05T22:50:06.838Z,65.28
2023-01-05T22:52:34.723Z,62.88
2023-01-05T22:55:03.199Z,58.78
2023-01-05T22:57:31.245Z,60.80
2023-01-05T22:59:59.884Z,64.95
2023-01-05T23:02:27.902Z,58.72
2023-01-05T23:04:56.407Z,54.00
2023-01-05T23:07:24.541Z,47.67
2023-01-05T23:09:52.783Z,53.88
2023-01-05T23:12:20.649Z,56.67
2023-01-05T23:14:49.555Z,48.35
2023-01-05T23:17:17.462Z,55.40
2023-01-05T23:19:45.712Z,47.55
2023-01-05T23:22:13.638Z,50.58
2023-01-05T23:24:42.190Z,45.97
2023-01-05T23:27:10.836Z,46.42
2023-01-05T23:29:39.147Z,44.50
2023-01-05T23:32:07.805Z,43.22
2023-01-05T23:34:36.109Z,37.83
2023-01-05T23:37:04.044Z,38.38
2023-01-05T23:39:33.516Z,36.00
2023-01-05T23:42:02.134Z,37.35
2023-01-05T23:44:30.943Z,29.45
2023-01-05T23:46:58.753Z,35.92
2023-01-05T23:49:29.827Z,30.58
2023-01-05T23:51:57.903Z,37.80
2023-01-05T23:54:26.187Z,31.73
2023-01-05T23:56:54.146Z,28.67
2023-01-05T23:59:22.423Z,31.35
